createdAt,value
2017-08-15T00:00:49.091Z,17.64
2017-08-15T00:03:18.792Z,17.65
2017-08-15T00:05:48.014Z,17.94
2017-08-15T00:08:17.498Z,17.61
2017-08-15T00:10:47.187Z,17.49
2017-08-15T00:13:16.602Z,17.61
2017-08-15T00:15:46.277Z,17.61
2017-08-15T00:18:16.149Z,17.53
2017-08-15T00:20:45.628Z,17.24
2017-08-15T00:23:14.867Z,17.20
2017-08-15T00:25:44.358Z,17.55
2017-08-15T00:28:13.738Z,17.14
2017-08-15T00:30:43.955Z,17.40
2017-08-15T00:33:13.500Z,17.21
2017-08-15T00:35:43.654Z,16.97
2017-08-15T00:38:12.820Z,16.98
2017-08-15T00:40:43.579Z,17.00
2017-08-15T00:43:12.874Z,17.01
2017-08-15T00:45:43.591Z,16.73
2017-08-15T00:48:13.703Z,16.77
2017-08-15T00:50:43.811Z,16.85
2017-08-15T00:53:13.483Z,16.75
2017-08-15T00:55:43.383Z,16.70
2017-08-15T00:58:13.253Z,16.69
2017-08-15T01:00:44.140Z,16.66
2017-08-15T01:03:13.714Z,16.59
2017-08-15T01:05:43.391Z,16.62
2017-08-15T01:08:14.077Z,16.49
2017-08-15T01:10:44.518Z,16.60
2017-08-15T01:13:14.127Z,16.51
2017-08-15T01:15:43.662Z,16.42
2017-08-15T01:18:13.534Z,16.43
2017-08-15T01:20:43.094Z,16.37
2017-08-15T01:23:12.539Z,16.60
2017-08-15T01:25:43.426Z,16.84
2017-08-15T01:28:14.238Z,16.47
2017-08-15T01:30:43.750Z,16.36
2017-08-15T01:33:13.427Z,16.26
2017-08-15T01:35:43.078Z,16.17
2017-08-15T01:38:12.448Z,16.14
2017-08-15T01:40:45.322Z,16.10
2017-08-15T01:43:14.722Z,16.27
2017-08-15T01:45:44.175Z,16.28
2017-08-15T01:48:13.987Z,16.12
2017-08-15T01:50:43.373Z,16.16
2017-08-15T01:53:12.778Z,16.07
2017-08-15T01:55:43.758Z,16.16
2017-08-15T01:58:13.478Z,16.16
2017-08-15T02:00:42.642Z,16.32
2017-08-15T02:03:12.313Z,15.89
2017-08-15T02:05:43.429Z,16.07
2017-08-15T02:08:12.870Z,15.96
2017-08-15T02:10:43.248Z,16.13
2017-08-15T02:13:12.658Z,15.98
2017-08-15T02:15:43.887Z,15.92
2017-08-15T02:18:14.876Z,16.21
2017-08-15T02:20:44.993Z,15.78
2017-08-15T02:23:14.661Z,15.96
2017-08-15T02:25:44.390Z,15.78
2017-08-15T02:28:13.838Z,15.73
2017-08-15T02:30:44.413Z,15.72
2017-08-15T02:33:13.906Z,15.67
2017-08-15T02:35:45.032Z,15.84
2017-08-15T02:38:14.170Z,15.58
2017-08-15T02:40:44.046Z,15.52
2017-08-15T02:43:14.578Z,15.48
2017-08-15T02:45:43.762Z,15.42
2017-08-15T02:48:13.174Z,15.49
2017-08-15T02:50:45.459Z,15.40
2017-08-15T02:53:15.074Z,15.33
2017-08-15T02:55:44.832Z,15.28
2017-08-15T02:58:24.550Z,15.16
2017-08-15T03:00:55.381Z,15.34
2017-08-15T03:03:26.207Z,15.43
2017-08-15T03:05:56.136Z,15.30
2017-08-15T03:08:25.699Z,15.38
2017-08-15T03:10:55.202Z,15.44
2017-08-15T03:13:24.794Z,15.42
2017-08-15T03:15:54.227Z,15.27
2017-08-15T03:18:23.668Z,15.40
2017-08-15T03:20:53.154Z,15.30
2017-08-15T03:23:22.371Z,15.52
2017-08-15T03:25:52.082Z,15.73
2017-08-15T03:28:21.650Z,15.60
2017-08-15T03:30:51.181Z,15.42
2017-08-15T03:33:23.302Z,15.47
2017-08-15T03:35:52.746Z,15.70
2017-08-15T03:38:26.657Z,15.78
2017-08-15T03:40:56.358Z,15.73
2017-08-15T03:43:26.009Z,15.70
2017-08-15T03:45:55.191Z,15.82
2017-08-15T03:48:33.030Z,15.73
2017-08-15T03:51:02.281Z,15.71
2017-08-15T03:53:32.043Z,15.60
2017-08-15T03:56:09.108Z,15.76
2017-08-15T03:58:40.746Z,16.15
2017-08-15T04:01:10.198Z,16.04
2017-08-15T04:03:42.014Z,15.75
2017-08-15T04:06:11.523Z,15.83
2017-08-15T04:08:44.182Z,15.76
2017-08-15T04:11:13.988Z,16.02
2017-08-15T04:13:44.647Z,15.82
2017-08-15T04:16:14.151Z,15.81
2017-08-15T04:18:44.711Z,15.99
2017-08-15T04:21:13.906Z,16.19
2017-08-15T04:23:44.321Z,16.17
2017-08-15T04:26:14.422Z,15.97
2017-08-15T04:28:45.626Z,16.06
2017-08-15T04:31:14.823Z,16.11
2017-08-15T04:33:47.279Z,16.18
2017-08-15T04:36:16.791Z,16.02
2017-08-15T04:38:46.324Z,16.17
2017-08-15T04:41:16.018Z,16.16
2017-08-15T04:43:45.150Z,16.26
2017-08-15T04:46:14.359Z,16.03
2017-08-15T04:48:50.292Z,16.08
2017-08-15T04:51:19.619Z,16.13
2017-08-15T04:53:48.790Z,16.11
2017-08-15T04:56:28.490Z,16.06
2017-08-15T04:58:57.655Z,16.01
2017-08-15T05:01:27.150Z,16.16
2017-08-15T05:03:56.678Z,16.24
2017-08-15T05:06:25.834Z,16.17
2017-08-15T05:08:55.162Z,16.17
2017-08-15T05:11:24.698Z,16.28
2017-08-15T05:13:53.914Z,16.38
2017-08-15T05:16:23.159Z,16.32
2017-08-15T05:18:53.923Z,16.33
2017-08-15T05:21:23.278Z,16.32
2017-08-15T05:23:55.689Z,16.47
2017-08-15T05:26:25.175Z,16.23
2017-08-15T05:28:54.455Z,16.26
2017-08-15T05:31:26.279Z,16.31
2017-08-15T05:33:55.968Z,16.24
2017-08-15T05:36:31.754Z,16.24
2017-08-15T05:39:01.266Z,16.33
2017-08-15T05:41:30.894Z,16.21
2017-08-15T05:44:00.106Z,16.46
2017-08-15T05:46:29.426Z,16.40
2017-08-15T05:48:58.966Z,16.41
2017-08-15T05:51:28.349Z,16.42
2017-08-15T05:53:57.616Z,16.51
2017-08-15T05:56:27.279Z,16.78
2017-08-15T05:58:56.578Z,17.03
2017-08-15T06:01:25.727Z,17.12
2017-08-15T06:03:55.663Z,17.22
2017-08-15T06:06:24.944Z,17.07
2017-08-15T06:08:54.690Z,17.23
2017-08-15T06:11:24.193Z,17.33
2017-08-15T06:13:53.410Z,17.33
2017-08-15T06:16:23.122Z,17.57
2017-08-15T06:18:52.835Z,17.69
2017-08-15T06:21:22.014Z,17.73
2017-08-15T06:23:51.262Z,17.75
2017-08-15T06:26:20.711Z,17.82
2017-08-15T06:28:49.845Z,17.92
2017-08-15T06:31:19.022Z,17.98
2017-08-15T06:33:48.580Z,17.94
2017-08-15T06:36:17.827Z,18.12
2017-08-15T06:38:46.998Z,18.17
2017-08-15T06:41:17.570Z,18.32
2017-08-15T06:43:46.726Z,18.50
2017-08-15T06:46:16.255Z,18.57
2017-08-15T06:48:45.727Z,18.67
2017-08-15T06:51:15.670Z,18.68
2017-08-15T06:53:44.852Z,18.81
2017-08-15T06:56:14.634Z,18.89
2017-08-15T06:58:43.865Z,18.99
2017-08-15T07:01:13.050Z,19.17
2017-08-15T07:03:42.918Z,19.38
2017-08-15T07:06:12.114Z,19.74
2017-08-15T07:08:47.300Z,20.08
2017-08-15T07:11:16.459Z,20.13
2017-08-15T07:13:46.006Z,20.48
2017-08-15T07:16:15.923Z,20.50
2017-08-15T07:18:45.376Z,20.97
2017-08-15T07:21:14.705Z,20.92
2017-08-15T07:23:44.162Z,21.03
2017-08-15T07:26:13.337Z,21.29
2017-08-15T07:28:43.219Z,21.16
2017-08-15T07:31:12.934Z,21.33
2017-08-15T07:33:43.191Z,21.39
2017-08-15T07:36:12.378Z,21.36
2017-08-15T07:38:42.641Z,21.35
2017-08-15T07:41:11.809Z,21.49
2017-08-15T07:43:43.450Z,21.61
2017-08-15T07:46:13.171Z,21.71
2017-08-15T07:48:43.123Z,22.13
2017-08-15T07:51:12.955Z,22.66
2017-08-15T07:53:43.616Z,23.12
2017-08-15T07:56:12.812Z,23.27
2017-08-15T07:58:42.595Z,23.38
2017-08-15T08:01:12.451Z,23.50
2017-08-15T08:03:43.226Z,24.09
2017-08-15T08:06:12.509Z,24.21
2017-08-15T08:08:43.282Z,24.24
2017-08-15T08:11:12.778Z,24.48
2017-08-15T08:13:42.763Z,24.28
2017-08-15T08:16:12.521Z,24.67
2017-08-15T08:18:43.610Z,25.05
2017-08-15T08:21:14.581Z,25.52
2017-08-15T08:23:44.017Z,25.57
2017-08-15T08:26:13.181Z,25.87
2017-08-15T08:28:43.118Z,26.07
2017-08-15T08:31:13.052Z,26.02
2017-08-15T08:33:43.607Z,26.51
2017-08-15T08:36:13.122Z,26.34
2017-08-15T08:38:43.366Z,26.85
2017-08-15T08:41:12.978Z,26.77
2017-08-15T08:43:43.316Z,26.81
2017-08-15T08:46:12.758Z,27.24
2017-08-15T08:48:44.125Z,27.04
2017-08-15T08:51:14.223Z,27.17
2017-08-15T08:53:43.791Z,27.43
2017-08-15T08:56:13.335Z,27.26
2017-08-15T08:58:43.305Z,27.74
2017-08-15T09:01:12.478Z,27.64
2017-08-15T09:03:43.193Z,27.64
2017-08-15T09:06:12.684Z,27.54
2017-08-15T09:08:42.886Z,27.92
2017-08-15T09:11:12.301Z,28.27
2017-08-15T09:13:43.310Z,27.98
2017-08-15T09:16:12.627Z,28.33
2017-08-15T09:18:43.578Z,28.64
2017-08-15T09:21:13.149Z,28.54
2017-08-15T09:23:43.658Z,28.30
2017-08-15T09:26:13.401Z,28.27
2017-08-15T09:28:47.204Z,29.02
2017-08-15T09:31:16.411Z,28.95
2017-08-15T09:33:45.724Z,28.88
2017-08-15T09:36:17.114Z,29.09
2017-08-15T09:38:47.006Z,28.54
2017-08-15T09:41:16.265Z,29.09
2017-08-15T09:43:47.625Z,29.81
2017-08-15T09:46:16.800Z,30.33
2017-08-15T09:48:46.554Z,29.30
2017-08-15T09:51:16.246Z,29.50
2017-08-15T09:53:46.203Z,29.28
2017-08-15T09:56:15.590Z,29.78
2017-08-15T09:58:49.322Z,29.55
2017-08-15T10:01:18.514Z,29.67
2017-08-15T10:03:47.692Z,29.30
2017-08-15T10:06:17.427Z,29.87
2017-08-15T10:08:46.988Z,29.56
2017-08-15T10:11:16.434Z,30.03
2017-08-15T10:13:46.116Z,30.26
2017-08-15T10:16:15.309Z,29.85
2017-08-15T10:18:44.524Z,29.52
2017-08-15T10:21:14.875Z,29.71
2017-08-15T10:23:48.257Z,30.27
2017-08-15T10:26:20.244Z,30.10
2017-08-15T10:28:49.862Z,31.01
2017-08-15T10:31:18.990Z,30.64
2017-08-15T10:33:48.218Z,30.97
2017-08-15T10:36:17.863Z,30.86
2017-08-15T10:38:47.700Z,31.54
2017-08-15T10:41:16.891Z,31.71
2017-08-15T10:43:46.518Z,31.91
2017-08-15T10:46:15.771Z,32.17
2017-08-15T10:48:44.993Z,30.88
2017-08-15T10:51:14.698Z,31.41
2017-08-15T10:53:44.041Z,31.82
2017-08-15T10:56:13.306Z,32.10
2017-08-15T10:58:43.263Z,32.03
2017-08-15T11:01:12.569Z,31.32
2017-08-15T11:03:45.819Z,30.85
2017-08-15T11:06:15.423Z,30.73
2017-08-15T11:08:44.701Z,30.27
2017-08-15T11:11:13.911Z,30.65
2017-08-15T11:13:43.421Z,31.78
2017-08-15T11:16:12.923Z,32.50
2017-08-15T11:18:43.136Z,32.68
2017-08-15T11:21:12.594Z,32.76
2017-08-15T11:23:42.881Z,32.73
2017-08-15T11:26:14.314Z,32.96
2017-08-15T11:28:43.770Z,33.06
2017-08-15T11:31:12.999Z,32.23
2017-08-15T11:33:42.830Z,32.36
2017-08-15T11:36:12.285Z,32.89
2017-08-15T11:38:43.493Z,32.04
2017-08-15T11:41:12.683Z,31.46
2017-08-15T11:43:43.319Z,31.84
2017-08-15T11:46:12.518Z,31.75
2017-08-15T11:48:43.138Z,31.64
2017-08-15T11:51:12.598Z,31.40
2017-08-15T11:53:44.468Z,31.32
2017-08-15T11:56:13.640Z,31.86
2017-08-15T11:58:43.326Z,31.00
2017-08-15T12:01:12.514Z,32.17
2017-08-15T12:03:42.843Z,31.80
2017-08-15T12:06:12.910Z,30.90
2017-08-15T12:08:44.258Z,31.48
2017-08-15T12:11:13.460Z,31.88
2017-08-15T12:13:48.713Z,31.29
2017-08-15T12:16:17.960Z,31.79
2017-08-15T12:18:47.175Z,31.99
2017-08-15T12:21:16.618Z,32.33
2017-08-15T12:23:45.855Z,31.82
2017-08-15T12:26:15.010Z,31.22
2017-08-15T12:28:44.515Z,31.67
2017-08-15T12:31:13.702Z,32.06
2017-08-15T12:33:42.969Z,31.91
2017-08-15T12:36:12.478Z,32.27
2017-08-15T12:38:47.866Z,31.78
2017-08-15T12:41:17.438Z,31.53
2017-08-15T12:43:48.556Z,32.05
2017-08-15T12:46:19.484Z,32.29
2017-08-15T12:48:51.239Z,31.31
2017-08-15T12:51:24.478Z,31.42
2017-08-15T12:53:56.896Z,31.02
2017-08-15T12:56:26.647Z,30.87
2017-08-15T12:58:55.831Z,30.96
2017-08-15T13:01:25.112Z,31.70
2017-08-15T13:03:54.719Z,32.00
2017-08-15T13:06:23.951Z,32.51
2017-08-15T13:08:53.174Z,32.33
2017-08-15T13:11:22.658Z,32.05
2017-08-15T13:13:51.813Z,32.21
2017-08-15T13:16:21.132Z,31.66
2017-08-15T13:18:50.554Z,31.77
2017-08-15T13:21:19.927Z,31.64
2017-08-15T13:23:49.080Z,31.08
2017-08-15T13:26:18.664Z,31.48
2017-08-15T13:28:47.964Z,31.13
2017-08-15T13:31:36.833Z,31.95
2017-08-15T13:34:13.312Z,31.74
2017-08-15T13:37:01.502Z,31.38
2017-08-15T13:39:49.964Z,31.73
2017-08-15T13:42:23.823Z,31.18
2017-08-15T13:44:53.432Z,30.61
2017-08-15T13:47:22.809Z,30.78
2017-08-15T13:49:52.066Z,30.80
2017-08-15T13:52:21.673Z,30.75
2017-08-15T13:54:50.957Z,31.29
2017-08-15T13:57:20.200Z,31.41
2017-08-15T13:59:49.819Z,31.01
2017-08-15T14:02:19.137Z,30.42
2017-08-15T14:04:48.398Z,30.18
2017-08-15T14:07:17.935Z,30.63
2017-08-15T14:09:47.207Z,30.57
2017-08-15T14:12:17.197Z,30.34
2017-08-15T14:14:46.783Z,29.85
2017-08-15T14:17:16.021Z,29.95
2017-08-15T14:19:45.275Z,30.61
2017-08-15T14:22:14.892Z,31.22
2017-08-15T14:24:45.925Z,31.09
2017-08-15T14:27:15.202Z,30.75
2017-08-15T14:29:44.981Z,31.25
2017-08-15T14:32:14.146Z,30.81
2017-08-15T14:34:43.490Z,30.75
2017-08-15T14:37:17.478Z,31.02
2017-08-15T14:39:46.943Z,30.63
2017-08-15T14:42:16.345Z,30.48
2017-08-15T14:44:45.914Z,30.53
2017-08-15T14:47:15.298Z,30.27
2017-08-15T14:49:44.558Z,30.15
2017-08-15T14:52:14.127Z,29.72
2017-08-15T14:54:43.481Z,29.89
2017-08-15T14:57:12.830Z,29.45
2017-08-15T14:59:43.423Z,29.25
2017-08-15T15:02:12.859Z,29.43
2017-08-15T15:04:43.752Z,29.32
2017-08-15T15:07:14.278Z,29.29
2017-08-15T15:09:43.759Z,28.80
2017-08-15T15:12:13.051Z,29.04
2017-08-15T15:14:43.913Z,28.97
2017-08-15T15:17:14.534Z,28.94
2017-08-15T15:19:44.762Z,28.72
2017-08-15T15:22:14.539Z,28.86
2017-08-15T15:24:43.855Z,28.72
2017-08-15T15:27:13.300Z,28.99
2017-08-15T15:29:43.802Z,28.97
2017-08-15T15:32:14.260Z,29.04
2017-08-15T15:34:43.519Z,28.77
2017-08-15T15:37:13.035Z,28.70
2017-08-15T15:39:47.104Z,29.08
2017-08-15T15:42:16.478Z,28.69
2017-08-15T15:44:45.991Z,28.56
2017-08-15T15:47:15.171Z,28.61
2017-08-15T15:49:44.434Z,28.49
2017-08-15T15:52:13.881Z,28.61
2017-08-15T15:54:43.130Z,28.76
2017-08-15T15:57:12.319Z,28.38
2017-08-15T15:59:43.921Z,28.39
2017-08-15T16:02:13.144Z,28.03
2017-08-15T16:04:43.687Z,27.93
2017-08-15T16:07:13.186Z,27.62
2017-08-15T16:09:42.981Z,27.66
2017-08-15T16:12:12.390Z,27.49
2017-08-15T16:14:43.511Z,26.31
2017-08-15T16:17:12.710Z,25.56
2017-08-15T16:19:43.602Z,23.72
2017-08-15T16:22:13.078Z,23.44
2017-08-15T16:24:43.303Z,22.64
2017-08-15T16:27:12.544Z,23.24
2017-08-15T16:29:43.314Z,23.37
2017-08-15T16:32:12.534Z,23.44
2017-08-15T16:34:42.666Z,23.46
2017-08-15T16:37:12.170Z,23.08
2017-08-15T16:39:43.208Z,23.26
2017-08-15T16:42:12.572Z,22.94
2017-08-15T16:44:43.635Z,23.12
2017-08-15T16:47:12.990Z,23.00
2017-08-15T16:49:43.210Z,23.01
2017-08-15T16:52:12.765Z,23.15
2017-08-15T16:54:43.434Z,22.99
2017-08-15T16:57:12.825Z,22.95
2017-08-15T16:59:44.166Z,23.12
2017-08-15T17:02:13.429Z,23.03
2017-08-15T17:04:43.213Z,22.79
2017-08-15T17:07:12.961Z,22.84
2017-08-15T17:09:43.007Z,22.84
2017-08-15T17:12:12.287Z,22.45
2017-08-15T17:14:43.397Z,22.68
2017-08-15T17:17:12.711Z,23.00
2017-08-15T17:19:45.055Z,23.23
2017-08-15T17:22:14.546Z,23.20
2017-08-15T17:24:43.765Z,23.37
2017-08-15T17:27:12.979Z,23.73
2017-08-15T17:29:44.087Z,23.43
2017-08-15T17:32:13.404Z,23.29
2017-08-15T17:34:43.218Z,23.03
2017-08-15T17:37:12.885Z,23.14
2017-08-15T17:39:43.268Z,23.17
2017-08-15T17:42:16.134Z,23.05
2017-08-15T17:44:45.625Z,22.98
2017-08-15T17:47:14.988Z,22.84
2017-08-15T17:49:44.330Z,22.80
2017-08-15T17:52:15.494Z,22.72
2017-08-15T17:54:44.768Z,22.70
2017-08-15T17:57:14.380Z,22.60
2017-08-15T18:00:04.875Z,22.69
2017-08-15T18:02:34.679Z,22.65
2017-08-15T18:05:04.514Z,22.61
2017-08-15T18:07:45.043Z,22.59
2017-08-15T18:10:23.653Z,22.45
2017-08-15T18:12:57.085Z,22.38
2017-08-15T18:15:27.006Z,22.32
2017-08-15T18:17:56.170Z,22.22
2017-08-15T18:20:25.370Z,22.08
2017-08-15T18:22:54.890Z,22.10
2017-08-15T18:25:24.150Z,21.99
2017-08-15T18:27:53.397Z,21.92
2017-08-15T18:30:23.016Z,21.91
2017-08-15T18:32:52.248Z,21.73
2017-08-15T18:35:21.544Z,21.76
2017-08-15T18:37:51.252Z,21.75
2017-08-15T18:40:20.629Z,21.57
2017-08-15T18:42:49.950Z,21.67
2017-08-15T18:45:19.688Z,21.59
2017-08-15T18:47:49.298Z,21.43
2017-08-15T18:50:19.864Z,21.40
2017-08-15T18:52:49.863Z,21.55
2017-08-15T18:55:19.207Z,21.57
2017-08-15T18:57:48.402Z,21.53
2017-08-15T19:00:19.038Z,21.56
2017-08-15T19:02:48.350Z,21.53
2017-08-15T19:05:18.050Z,21.46
2017-08-15T19:07:47.743Z,21.50
2017-08-15T19:10:17.107Z,21.46
2017-08-15T19:12:46.992Z,21.28
2017-08-15T19:15:17.078Z,21.26
2017-08-15T19:17:46.730Z,21.31
2017-08-15T19:20:16.527Z,21.16
2017-08-15T19:22:46.238Z,21.26
2017-08-15T19:25:16.202Z,21.32
2017-08-15T19:27:45.427Z,21.42
2017-08-15T19:30:14.975Z,21.27
2017-08-15T19:32:44.824Z,21.23
2017-08-15T19:35:14.418Z,21.32
2017-08-15T19:37:44.002Z,21.32
2017-08-15T19:40:13.394Z,21.29
2017-08-15T19:42:43.532Z,21.27
2017-08-15T19:45:13.311Z,21.23
2017-08-15T19:47:43.211Z,21.43
2017-08-15T19:50:12.413Z,21.27
2017-08-15T19:52:45.059Z,21.23
2017-08-15T19:55:14.838Z,21.25
2017-08-15T19:57:44.066Z,21.13
2017-08-15T20:00:14.070Z,21.23
2017-08-15T20:02:43.399Z,21.29
2017-08-15T20:05:12.811Z,21.28
2017-08-15T20:07:45.826Z,21.30
2017-08-15T20:10:16.202Z,21.17
2017-08-15T20:12:45.810Z,20.63
2017-08-15T20:15:15.669Z,20.68
2017-08-15T20:17:44.919Z,20.48
2017-08-15T20:20:14.099Z,20.20
2017-08-15T20:22:43.518Z,20.08
2017-08-15T20:25:12.810Z,20.15
2017-08-15T20:27:42.866Z,20.46
2017-08-15T20:30:12.375Z,20.74
2017-08-15T20:32:44.666Z,20.64
2017-08-15T20:35:13.843Z,20.29
2017-08-15T20:37:44.311Z,20.29
2017-08-15T20:40:13.627Z,20.18
2017-08-15T20:42:43.872Z,20.35
2017-08-15T20:45:15.150Z,20.59
2017-08-15T20:47:44.627Z,20.64
2017-08-15T20:50:13.841Z,20.65
2017-08-15T20:52:43.871Z,20.59
2017-08-15T20:55:13.062Z,20.53
2017-08-15T20:57:43.786Z,20.55
2017-08-15T21:00:13.294Z,20.45
2017-08-15T21:02:45.620Z,20.45
2017-08-15T21:05:15.354Z,20.47
2017-08-15T21:07:44.539Z,20.48
2017-08-15T21:10:13.743Z,20.48
2017-08-15T21:12:44.449Z,20.45
2017-08-15T21:15:13.802Z,20.51
2017-08-15T21:17:43.481Z,20.54
2017-08-15T21:20:13.086Z,20.60
2017-08-15T21:22:43.475Z,20.57
2017-08-15T21:25:12.734Z,20.60
2017-08-15T21:27:43.468Z,20.60
2017-08-15T21:30:12.846Z,20.59
2017-08-15T21:32:44.450Z,20.63
2017-08-15T21:35:14.592Z,20.63
2017-08-15T21:37:44.059Z,20.67
2017-08-15T21:40:13.302Z,20.64
2017-08-15T21:42:43.809Z,20.65
2017-08-15T21:45:13.082Z,20.59
2017-08-15T21:47:44.094Z,20.64
2017-08-15T21:50:13.818Z,20.71
2017-08-15T21:52:43.458Z,20.64
2017-08-15T21:55:12.633Z,20.47
2017-08-15T21:57:46.042Z,20.30
2017-08-15T22:00:15.293Z,20.46
2017-08-15T22:02:44.915Z,20.38
2017-08-15T22:05:14.169Z,20.46
2017-08-15T22:07:48.013Z,20.42
2017-08-15T22:10:18.820Z,20.59
2017-08-15T22:12:48.366Z,20.62
2017-08-15T22:15:17.989Z,20.55
2017-08-15T22:17:47.574Z,20.52
2017-08-15T22:20:16.775Z,20.56
2017-08-15T22:22:46.443Z,20.61
2017-08-15T22:25:15.850Z,20.54
2017-08-15T22:27:45.046Z,20.55
2017-08-15T22:30:14.676Z,20.58
2017-08-15T22:32:44.146Z,20.59
2017-08-15T22:35:13.606Z,20.56
2017-08-15T22:37:43.710Z,20.56
2017-08-15T22:40:12.918Z,20.48
2017-08-15T22:42:43.854Z,20.47
2017-08-15T22:45:13.973Z,20.49
2017-08-15T22:47:43.793Z,20.39
2017-08-15T22:50:13.286Z,20.24
2017-08-15T22:52:43.622Z,20.25
2017-08-15T22:55:13.587Z,20.24
2017-08-15T22:57:43.838Z,20.03
2017-08-15T23:00:13.418Z,20.11
2017-08-15T23:02:44.570Z,20.11
2017-08-15T23:05:14.539Z,19.81
2017-08-15T23:07:44.002Z,19.90
2017-08-15T23:10:13.150Z,19.91
2017-08-15T23:12:43.664Z,19.88
2017-08-15T23:15:13.375Z,19.76
2017-08-15T23:17:43.688Z,19.84
2017-08-15T23:20:13.321Z,19.88
2017-08-15T23:22:44.347Z,19.94
2017-08-15T23:25:13.650Z,19.91
2017-08-15T23:27:43.806Z,20.00
2017-08-15T23:30:13.879Z,20.19
2017-08-15T23:32:43.497Z,20.20
2017-08-15T23:35:12.805Z,20.31
2017-08-15T23:37:43.399Z,20.26
2017-08-15T23:40:13.015Z,20.35
2017-08-15T23:42:44.263Z,20.37
2017-08-15T23:45:13.686Z,20.29
2017-08-15T23:47:43.261Z,20.36
2017-08-15T23:50:12.677Z,20.32
2017-08-15T23:52:43.739Z,20.40
2017-08-15T23:55:13.098Z,20.27
2017-08-15T23:57:43.648Z,20.36
